Time;durP1;ratioP1;P1;durP2;ratioP2;P2;SDS_P1;SDS_P2;PMS_P1;PMS_P2;Temp;Humidity;BMP_temperature;BMP_pressure;BME280_temperature;BME280_humidity;BME280_pressure;Samples;Min_cycle;Max_cycle;Signal;HPM_P1;HPM_P2
2021/12/29 00:00:58;;;;;;;4.05;1.00;;;;;;;6.91;81.91;96139.44;5022310;28;20057;-60
2021/12/29 00:03:25;;;;;;;5.40;1.17;;;;;;;7.03;81.34;96128.47;5024072;28;20045;-59
2021/12/29 00:05:52;;;;;;;6.50;1.13;;;;;;;7.02;80.76;96143.81;5023533;28;20056;-60
2021/12/29 00:08:18;;;;;;;3.58;0.90;;;;;;;7.05;81.05;96120.13;5023449;28;20050;-60
2021/12/29 00:10:47;;;;;;;5.75;1.25;;;;;;;7.10;79.95;96133.63;5023430;28;20532;-60
2021/12/29 00:13:13;;;;;;;2.92;0.68;;;;;;;7.16;79.58;96138.78;5025377;28;20048;-59
2021/12/29 00:15:40;;;;;;;3.67;1.33;;;;;;;7.16;79.58;96140.69;5023852;28;20045;-58
2021/12/29 00:18:11;;;;;;;4.53;0.75;;;;;;;7.24;78.84;96155.50;5032112;28;20576;-60
2021/12/29 00:20:38;;;;;;;2.90;0.77;;;;;;;7.11;79.68;96159.50;5032418;28;20517;-60
2021/12/29 00:23:07;;;;;;;5.43;0.95;;;;;;;7.14;80.19;96175.94;5024258;28;20041;-60
2021/12/29 00:25:38;;;;;;;3.90;1.05;;;;;;;7.01;81.01;96173.69;5026730;28;20033;-60
2021/12/29 00:28:05;;;;;;;1.88;0.50;;;;;;;7.00;81.20;96178.25;5026568;28;20052;-60
2021/12/29 00:30:31;;;;;;;2.80;0.68;;;;;;;6.97;81.80;96188.72;5025136;28;20049;-60
2021/12/29 00:32:58;;;;;;;3.33;0.73;;;;;;;6.99;81.82;96186.56;5026928;28;20053;-60
2021/12/29 00:35:54;;;;;;;1.60;0.40;;;;;;;6.88;82.85;96196.44;5005115;28;20595;-60
2021/12/29 00:38:39;;;;;;;3.85;0.65;;;;;;;6.82;83.68;96211.75;5026002;28;20107;-60
2021/12/29 00:41:38;;;;;;;3.33;0.63;;;;;;;6.70;83.98;96206.53;4994096;28;20553;-60
2021/12/29 00:44:23;;;;;;;2.05;0.40;;;;;;;6.73;84.61;96221.34;5018452;28;20111;-59
2021/12/29 00:47:06;;;;;;;6.55;1.92;;;;;;;6.73;84.26;96222.16;5024445;28;20090;-59
2021/12/29 00:49:35;;;;;;;5.65;1.08;;;;;;;6.73;83.88;96226.72;5024862;28;20053;-60
2021/12/29 00:52:07;;;;;;;5.28;0.50;;;;;;;6.81;82.89;96242.41;5025795;28;20041;-60
2021/12/29 00:54:39;;;;;;;2.47;0.73;;;;;;;6.81;83.00;96218.19;5024728;28;20087;-60
2021/12/29 00:57:06;;;;;;;9.13;1.23;;;;;;;6.79;82.81;96246.44;5024333;28;20052;-60
2021/12/29 00:59:33;;;;;;;1.45;0.50;;;;;;;6.79;82.51;96233.78;5025537;28;20046;-60
2021/12/29 01:01:59;;;;;;;2.92;1.00;;;;;;;6.81;83.39;96245.09;5025705;28;20045;-60
2021/12/29 01:04:26;;;;;;;3.92;1.65;;;;;;;6.81;82.76;96244.31;5025467;28;20041;-60
2021/12/29 01:06:53;;;;;;;0.93;0.40;;;;;;;6.86;82.88;96253.22;5024945;28;20044;-61
2021/12/29 01:09:19;;;;;;;5.78;1.13;;;;;;;6.76;83.03;96263.88;5025315;28;20041;-60
2021/12/29 01:11:47;;;;;;;1.70;0.60;;;;;;;6.76;83.70;96253.13;5025243;28;20511;-60
2021/12/29 01:14:17;;;;;;;6.05;0.50;;;;;;;6.84;83.05;96270.69;5025710;28;20041;-61
2021/12/29 01:16:45;;;;;;;4.95;0.90;;;;;;;6.84;82.87;96279.56;5023593;28;20064;-60
2021/12/29 01:19:23;;;;;;;3.60;0.82;;;;;;;6.80;82.51;96274.94;5027728;28;20567;-59
2021/12/29 01:21:54;;;;;;;3.47;0.60;;;;;;;6.94;81.24;96278.03;5025540;28;20049;-60
2021/12/29 01:24:22;;;;;;;3.40;1.00;;;;;;;6.98;80.24;96285.34;5023731;28;20046;-60
2021/12/29 01:26:50;;;;;;;2.22;0.60;;;;;;;7.04;80.17;96296.97;5025590;28;20053;-59
2021/12/29 01:29:17;;;;;;;1.65;0.50;;;;;;;7.10;79.72;96295.94;5025673;28;20056;-60
2021/12/29 01:31:44;;;;;;;0.17;0.15;;;;;;;7.12;79.74;96296.50;5025098;28;20049;-59
2021/12/29 01:34:11;;;;;;;3.38;0.80;;;;;;;7.13;79.10;96300.84;5025487;28;20037;-60
2021/12/29 01:36:38;;;;;;;0.75;0.30;;;;;;;7.16;78.48;96302.19;5024718;28;20084;-60
2021/12/29 01:39:12;;;;;;;2.15;0.65;;;;;;;7.18;78.65;96291.97;5025026;28;20520;-60
2021/12/29 01:41:39;;;;;;;2.38;0.40;;;;;;;7.15;78.55;96312.13;5024705;28;20503;-61
2021/12/29 01:44:08;;;;;;;2.05;0.32;;;;;;;7.14;79.01;96317.78;5024382;28;20041;-59
2021/12/29 01:46:36;;;;;;;2.15;0.22;;;;;;;7.16;78.45;96310.28;5025200;28;20056;-61
2021/12/29 01:49:03;;;;;;;0.65;0.28;;;;;;;7.22;78.23;96330.78;5023957;28;20072;-60
2021/12/29 01:51:30;;;;;;;1.90;0.22;;;;;;;7.14;78.95;96318.59;5024683;28;20472;-60
2021/12/29 01:56:44;;;;;;;1.13;0.32;;;;;;;6.98;79.59;96331.13;5024889;28;20037;-61
2021/12/29 01:59:12;;;;;;;3.83;0.60;;;;;;;7.09;78.48;96337.41;5024689;28;20048;-60
2021/12/29 02:01:39;;;;;;;1.45;0.82;;;;;;;7.11;78.32;96346.03;5025041;28;20075;-61
2021/12/29 02:04:06;;;;;;;2.58;0.63;;;;;;;7.13;78.59;96335.81;5025263;28;20475;-60
2021/12/29 02:06:33;;;;;;;2.63;0.50;;;;;;;7.14;78.48;96342.81;5022255;28;20046;-60
2021/12/29 02:09:00;;;;;;;2.13;0.20;;;;;;;7.13;78.26;96340.38;5025846;28;20052;-61
2021/12/29 02:11:30;;;;;;;1.48;0.40;;;;;;;7.05;78.93;96348.91;5015571;28;20397;-60
2021/12/29 02:14:02;;;;;;;4.03;1.00;;;;;;;7.04;78.76;96345.41;5024496;28;20048;-60
2021/12/29 02:16:29;;;;;;;5.35;0.60;;;;;;;7.03;79.08;96338.41;5028739;28;20421;-63
2021/12/29 02:19:03;;;;;;;2.45;0.57;;;;;;;7.06;78.83;96347.84;5035896;28;20050;-60
2021/12/29 02:21:32;;;;;;;1.95;0.20;;;;;;;7.08;78.38;96348.41;5008813;28;20065;-59
2021/12/29 02:26:29;;;;;;;1.33;0.50;;;;;;;7.07;78.69;96362.94;5027697;28;20048;-61
2021/12/29 02:28:57;;;;;;;2.90;0.60;;;;;;;7.05;78.54;96376.66;5037964;28;20054;-61
2021/12/29 02:31:24;;;;;;;0.95;0.38;;;;;;;7.07;78.24;96382.59;5027100;28;20064;-60
2021/12/29 02:33:52;;;;;;;2.63;0.47;;;;;;;7.09;78.29;96385.84;5028042;28;20042;-60
2021/12/29 02:36:19;;;;;;;2.92;0.43;;;;;;;7.11;78.57;96396.38;5028114;28;20041;-60
2021/12/29 02:38:51;;;;;;;3.58;0.60;;;;;;;7.07;78.69;96387.97;5026650;28;20891;-61
2021/12/29 02:41:18;;;;;;;0.40;0.20;;;;;;;7.12;78.86;96404.16;5027355;28;20045;-60
2021/12/29 02:43:46;;;;;;;3.28;0.50;;;;;;;7.08;79.11;96405.75;5027296;28;20564;-60
2021/12/29 02:46:16;;;;;;;0.77;0.40;;;;;;;7.11;79.00;96417.91;5027755;28;20046;-60
2021/12/29 02:48:53;;;;;;;1.33;0.30;;;;;;;7.14;78.55;96430.84;5028079;28;20069;-60
2021/12/29 02:51:19;;;;;;;3.10;0.60;;;;;;;7.16;78.98;96412.56;5027388;28;20057;-59
2021/12/29 02:53:46;;;;;;;3.90;0.60;;;;;;;7.13;79.30;96423.84;5027905;28;20056;-61
2021/12/29 02:56:13;;;;;;;1.08;0.30;;;;;;;7.10;79.59;96427.03;5026052;28;20603;-61
2021/12/29 02:58:40;;;;;;;0.60;0.20;;;;;;;7.06;80.01;96417.84;5027618;28;20033;-61
2021/12/29 03:01:13;;;;;;;3.05;0.52;;;;;;;7.10;79.18;96430.53;5027249;28;20045;-61
2021/12/29 03:03:40;;;;;;;1.90;0.45;;;;;;;7.06;79.96;96442.88;5007143;28;20395;-61
2021/12/29 03:06:08;;;;;;;3.08;0.68;;;;;;;7.03;80.13;96448.75;5014417;28;20046;-60
2021/12/29 03:08:36;;;;;;;7.80;0.50;;;;;;;7.03;79.86;96443.38;5027965;28;20041;-61
2021/12/29 03:11:03;;;;;;;3.42;0.50;;;;;;;7.01;80.21;96464.38;5020796;28;20049;-60
2021/12/29 03:13:33;;;;;;;2.03;0.60;;;;;;;7.00;80.32;96473.47;5027511;28;20064;-60
2021/12/29 03:16:00;;;;;;;2.55;0.52;;;;;;;6.99;80.49;96469.16;5036557;28;20713;-60
2021/12/29 03:18:28;;;;;;;1.05;0.28;;;;;;;7.07;80.28;96457.97;5024567;28;20038;-61
2021/12/29 03:20:55;;;;;;;1.85;0.40;;;;;;;7.04;80.40;96466.53;5027178;28;20041;-61
2021/12/29 03:23:22;;;;;;;1.70;0.25;;;;;;;7.00;81.02;96451.94;5026745;28;20501;-61
2021/12/29 03:25:49;;;;;;;1.65;0.60;;;;;;;6.93;81.33;96460.22;5026891;28;20041;-61
2021/12/29 03:28:16;;;;;;;1.25;0.50;;;;;;;6.93;81.35;96460.22;5037099;28;20052;-61
2021/12/29 03:30:47;;;;;;;1.10;0.28;;;;;;;6.99;80.90;96461.09;5026719;28;20413;-61
2021/12/29 03:33:14;;;;;;;1.13;0.30;;;;;;;6.97;81.17;96461.34;5027356;28;20578;-61
2021/12/29 03:35:50;;;;;;;2.10;0.20;;;;;;;6.95;81.13;96463.47;5026319;28;20049;-61
2021/12/29 03:38:21;;;;;;;1.27;0.30;;;;;;;6.93;81.18;96462.13;5024651;28;20060;-61
2021/12/29 03:40:48;;;;;;;;;;;;;;;6.87;80.88;96427.06;5026243;28;20048;-61
2021/12/29 03:43:15;;;;;;;0.98;0.22;;;;;;;6.89;80.88;96448.31;5025821;28;19921;-61
2021/12/29 03:45:47;;;;;;;0.35;0.20;;;;;;;6.88;80.77;96463.69;5025577;28;20041;-61
2021/12/29 03:48:16;;;;;;;0.47;0.20;;;;;;;6.81;81.70;96483.78;5025878;28;20051;-61
2021/12/29 03:50:43;;;;;;;0.63;0.20;;;;;;;6.83;81.39;96482.47;5025643;28;20059;-61
2021/12/29 03:53:10;;;;;;;0.10;0.10;;;;;;;6.79;82.43;96478.63;5027005;28;20056;-60
2021/12/29 03:55:36;;;;;;;0.17;0.17;;;;;;;6.84;81.61;96485.94;5038213;28;20523;-61
2021/12/29 03:58:03;;;;;;;0.68;0.10;;;;;;;6.85;81.70;96482.19;5026943;28;20515;-60
2021/12/29 04:00:30;;;;;;;0.20;0.10;;;;;;;6.83;81.42;96484.31;5024142;28;20052;-60
2021/12/29 04:02:57;;;;;;;0.05;0.00;;;;;;;6.88;81.12;96495.16;5024941;28;20056;-61
2021/12/29 04:05:24;;;;;;;0.13;0.10;;;;;;;6.78;81.99;96498.50;5026317;28;20402;-61
2021/12/29 04:07:53;;;;;;;0.45;0.20;;;;;;;6.77;81.94;96494.19;5025788;28;20052;-61
2021/12/29 04:10:21;;;;;;;0.10;0.10;;;;;;;6.76;81.89;96508.72;5026000;28;20037;-60
2021/12/29 04:12:48;;;;;;;0.13;0.13;;;;;;;6.80;81.68;96504.47;5017675;28;20532;-60
2021/12/29 04:15:16;;;;;;;2.10;0.10;;;;;;;6.83;81.48;96505.84;5025440;28;20049;-61
2021/12/29 04:17:45;;;;;;;1.25;0.10;;;;;;;6.83;81.94;96522.81;5028860;28;20048;-61
2021/12/29 04:22:59;;;;;;;0.20;0.20;;;;;;;6.94;81.04;96520.25;5006908;28;20520;-61
2021/12/29 04:25:27;;;;;;;0.05;0.05;;;;;;;6.93;81.41;96537.47;5022751;28;20033;-61
2021/12/29 04:27:56;;;;;;;0.15;0.15;;;;;;;6.88;81.73;96524.75;5025587;28;20053;-61
2021/12/29 04:30:24;;;;;;;0.32;0.10;;;;;;;6.78;82.77;96538.06;5025274;28;20125;-60
2021/12/29 04:32:52;;;;;;;0.00;0.00;;;;;;;6.73;83.37;96544.19;5026451;28;20087;-61
2021/12/29 04:35:21;;;;;;;0.85;0.17;;;;;;;6.61;84.12;96563.13;5025538;28;20057;-61
2021/12/29 04:37:49;;;;;;;0.20;0.20;;;;;;;6.55;85.27;96551.47;5024016;28;20049;-61
2021/12/29 04:40:16;;;;;;;0.60;0.10;;;;;;;6.52;86.33;96551.16;5026121;28;20567;-61
2021/12/29 04:42:43;;;;;;;1.00;0.13;;;;;;;6.45;87.09;96556.72;5025295;28;20045;-61
2021/12/29 04:45:11;;;;;;;0.93;0.20;;;;;;;6.40;87.44;96545.84;5024959;28;20045;-61
2021/12/29 04:47:41;;;;;;;0.52;0.13;;;;;;;6.32;88.21;96557.84;5025695;28;20053;-61
2021/12/29 04:50:23;;;;;;;1.65;0.28;;;;;;;6.43;88.28;96561.50;5023664;28;20042;-61
2021/12/29 04:52:51;;;;;;;;;;;;;;;6.42;87.79;96557.19;5026733;28;20034;-61
2021/12/29 04:55:17;;;;;;;0.32;0.20;;;;;;;6.33;88.40;96560.28;5025012;28;19925;-60
2021/12/29 04:57:44;;;;;;;0.43;0.20;;;;;;;6.34;87.38;96569.97;5025659;28;20048;-61
2021/12/29 05:00:11;;;;;;;1.08;0.30;;;;;;;6.30;88.69;96568.84;5025406;28;20563;-61
2021/12/29 05:02:38;;;;;;;1.40;0.45;;;;;;;6.22;88.39;96563.84;5025213;28;20045;-61
2021/12/29 05:05:19;;;;;;;1.90;0.50;;;;;;;6.22;88.35;96577.28;5025823;28;20574;-61
2021/12/29 05:10:32;;;;;;;1.98;0.40;;;;;;;6.21;88.91;96579.19;5025582;28;20080;-61
2021/12/29 05:12:58;;;;;;;0.20;0.20;;;;;;;6.17;89.23;96585.28;5025660;28;20041;-60
2021/12/29 05:15:25;;;;;;;1.75;0.40;;;;;;;6.15;89.58;96585.53;5027112;28;20041;-61
2021/12/29 05:17:52;;;;;;;1.05;0.40;;;;;;;6.28;89.62;96599.72;5030066;28;20041;-61
2021/12/29 05:20:19;;;;;;;1.85;0.50;;;;;;;6.24;89.81;96600.19;5034080;28;20057;-60
2021/12/29 05:22:45;;;;;;;2.83;0.50;;;;;;;6.35;89.00;96600.38;5025000;28;20050;-60
2021/12/29 05:25:12;;;;;;;0.68;0.30;;;;;;;6.32;89.08;96604.38;5025591;28;20048;-61
2021/12/29 05:27:38;;;;;;;0.20;0.20;;;;;;;6.24;89.64;96607.47;5025495;28;20054;-61
2021/12/29 05:30:05;;;;;;;0.98;0.28;;;;;;;6.23;89.63;96605.84;5024972;28;20048;-61
2021/12/29 05:32:33;;;;;;;3.58;0.60;;;;;;;6.19;89.54;96607.38;5025091;28;20075;-60
2021/12/29 05:35:00;;;;;;;1.55;0.50;;;;;;;6.28;88.53;96605.09;5024397;28;20037;-60
2021/12/29 05:37:26;;;;;;;2.58;0.55;;;;;;;6.38;88.22;96599.91;5023713;28;20127;-60
2021/12/29 05:39:53;;;;;;;2.15;0.50;;;;;;;6.50;87.75;96599.81;5017981;28;20041;-60
2021/12/29 05:42:19;;;;;;;2.45;0.52;;;;;;;6.52;87.51;96602.25;5029180;28;20038;-61
2021/12/29 05:44:46;;;;;;;1.65;0.30;;;;;;;6.48;87.31;96596.53;5020387;28;20042;-61
2021/12/29 05:47:12;;;;;;;2.33;0.82;;;;;;;6.48;87.26;96604.59;5023368;28;20045;-61
2021/12/29 05:49:39;;;;;;;4.25;0.45;;;;;;;6.56;86.11;96614.16;5027169;28;20049;-61
2021/12/29 05:52:06;;;;;;;1.02;0.43;;;;;;;6.61;85.90;96619.63;5028887;28;20052;-61
2021/12/29 05:54:32;;;;;;;3.50;0.50;;;;;;;6.59;85.65;96619.84;5028868;28;20100;-61
2021/12/29 05:56:59;;;;;;;3.67;0.55;;;;;;;6.69;85.59;96618.38;5028651;28;20060;-61
2021/12/29 05:59:25;;;;;;;1.83;0.40;;;;;;;6.63;85.67;96631.75;5028967;28;20033;-61
2021/12/29 06:01:52;;;;;;;0.95;0.40;;;;;;;6.56;86.23;96623.03;5028578;28;20034;-61
2021/12/29 06:04:19;;;;;;;4.22;0.50;;;;;;;6.62;86.30;96632.81;5028309;28;20045;-60
2021/12/29 06:06:45;;;;;;;2.33;0.50;;;;;;;6.64;85.98;96627.19;5027715;28;20087;-61
2021/12/29 06:09:12;;;;;;;3.50;0.60;;;;;;;6.69;85.42;96624.59;5028039;28;20677;-61
2021/12/29 06:11:39;;;;;;;2.85;0.55;;;;;;;6.72;85.29;96634.88;5028585;28;20038;-60
2021/12/29 06:14:05;;;;;;;1.65;0.50;;;;;;;6.65;84.81;96639.59;5029071;28;20413;-60
2021/12/29 06:16:32;;;;;;;2.20;0.50;;;;;;;6.69;84.07;96637.22;5028074;28;20037;-60
2021/12/29 06:18:59;;;;;;;2.60;0.50;;;;;;;6.74;83.24;96640.81;5033191;28;20091;-60
2021/12/29 06:21:26;;;;;;;3.03;0.60;;;;;;;6.76;83.49;96637.88;5027507;28;20037;-61
2021/12/29 06:23:53;;;;;;;2.88;0.50;;;;;;;6.75;83.28;96634.34;5028780;28;20048;-60
2021/12/29 06:26:20;;;;;;;3.58;0.50;;;;;;;6.76;83.45;96638.69;5028520;28;20119;-60
2021/12/29 06:28:46;;;;;;;2.63;0.75;;;;;;;6.73;83.24;96630.28;5028029;28;20124;-60
2021/12/29 06:31:13;;;;;;;1.48;0.38;;;;;;;6.72;83.58;96634.03;5026181;28;20041;-60
2021/12/29 06:33:40;;;;;;;3.90;0.75;;;;;;;6.79;83.48;96644.63;5023960;28;20493;-61
2021/12/29 06:36:07;;;;;;;1.98;0.38;;;;;;;6.68;83.52;96652.56;5027328;28;20045;-59
2021/12/29 06:38:34;;;;;;;2.88;0.55;;;;;;;6.74;83.10;96658.81;5027102;28;20044;-60
2021/12/29 06:41:01;;;;;;;4.25;0.50;;;;;;;6.63;83.79;96664.03;5026770;28;20049;-61
2021/12/29 06:43:28;;;;;;;0.68;0.30;;;;;;;6.69;83.11;96661.41;5020330;28;20535;-59
2021/12/29 06:45:54;;;;;;;3.35;0.65;;;;;;;6.80;82.19;96652.47;5025181;28;20055;-59
2021/12/29 06:48:21;;;;;;;5.38;0.55;;;;;;;6.87;82.03;96653.13;5027573;28;20053;-61
2021/12/29 06:50:48;;;;;;;2.50;0.40;;;;;;;6.83;82.00;96657.38;5027983;28;20503;-60
2021/12/29 06:53:14;;;;;;;2.90;0.73;;;;;;;6.81;82.36;96677.50;5028068;28;20050;-60
2021/12/29 06:55:43;;;;;;;3.80;0.55;;;;;;;6.79;82.65;96675.06;5025704;28;20037;-60
2021/12/29 06:58:10;;;;;;;1.95;0.80;;;;;;;6.79;82.49;96685.81;5027759;28;20037;-60
2021/12/29 07:00:37;;;;;;;2.10;0.50;;;;;;;6.83;82.33;96683.44;5026181;28;20042;-61
2021/12/29 07:03:05;;;;;;;2.58;0.30;;;;;;;6.76;82.49;96703.28;5023572;28;20046;-65
2021/12/29 07:05:32;;;;;;;1.23;0.32;;;;;;;6.78;82.19;96702.19;5028381;28;20049;-65
2021/12/29 07:07:59;;;;;;;2.85;0.57;;;;;;;6.81;81.79;96704.41;5007354;28;20050;-65
2021/12/29 07:10:26;;;;;;;0.68;0.40;;;;;;;6.79;81.83;96710.03;5015356;28;20037;-65
2021/12/29 07:12:52;;;;;;;3.83;0.80;;;;;;;6.70;82.46;96711.47;5027524;28;20041;-65
2021/12/29 07:15:19;;;;;;;1.58;0.40;;;;;;;6.75;82.23;96714.28;5025200;28;20037;-65
2021/12/29 07:17:45;;;;;;;1.70;0.28;;;;;;;6.81;82.14;96718.66;5029529;28;20049;-65
2021/12/29 07:20:12;;;;;;;1.88;0.30;;;;;;;6.81;81.79;96726.75;5020908;28;20057;-65
2021/12/29 07:22:39;;;;;;;1.33;0.20;;;;;;;6.68;82.57;96710.91;5026775;28;20045;-65
2021/12/29 07:25:06;;;;;;;2.30;0.40;;;;;;;6.67;83.22;96711.97;5027194;28;20400;-65
2021/12/29 07:27:33;;;;;;;0.85;0.20;;;;;;;6.56;83.82;96725.22;5022974;28;20550;-65
2021/12/29 07:29:59;;;;;;;0.95;0.30;;;;;;;6.64;83.14;96737.50;5023716;28;20550;-66
2021/12/29 07:32:27;;;;;;;2.08;0.40;;;;;;;6.65;83.48;96731.06;5021050;28;20091;-66
2021/12/29 07:34:53;;;;;;;1.25;0.30;;;;;;;6.58;83.06;96751.91;5017736;28;20045;-66
2021/12/29 07:37:20;;;;;;;0.68;0.38;;;;;;;6.53;83.22;96762.56;5021060;28;20042;-65
2021/12/29 07:39:47;;;;;;;1.00;0.22;;;;;;;6.64;83.44;96762.50;5023147;28;20050;-66
2021/12/29 07:42:13;;;;;;;1.40;0.20;;;;;;;6.66;82.93;96764.16;5022573;28;20041;-65
2021/12/29 07:44:45;;;;;;;1.55;0.32;;;;;;;6.63;83.66;96765.44;5023780;28;20568;-65
2021/12/29 07:47:13;;;;;;;1.48;0.30;;;;;;;6.55;84.61;96769.34;5024449;28;20048;-65
2021/12/29 07:49:40;;;;;;;1.48;0.32;;;;;;;6.48;84.84;96768.66;5025299;28;20064;-65
2021/12/29 07:52:08;;;;;;;2.50;0.60;;;;;;;6.50;84.92;96770.03;5024201;28;20053;-65
2021/12/29 07:54:34;;;;;;;1.65;0.50;;;;;;;6.55;84.40;96779.28;5023590;28;20049;-65
2021/12/29 07:57:01;;;;;;;0.75;0.30;;;;;;;6.53;84.20;96771.47;5027035;28;20432;-65
2021/12/29 07:59:28;;;;;;;1.77;0.30;;;;;;;6.52;84.31;96780.56;5024067;28;20052;-65
2021/12/29 08:01:54;;;;;;;1.10;0.40;;;;;;;6.69;83.75;96777.94;5026546;28;20052;-65
2021/12/29 08:04:21;;;;;;;1.40;0.30;;;;;;;6.80;81.90;96795.06;5027181;28;20551;-65
2021/12/29 08:06:48;;;;;;;0.85;0.40;;;;;;;6.74;82.18;96790.66;5024418;28;20056;-66
2021/12/29 08:09:14;;;;;;;2.92;0.68;;;;;;;6.94;80.15;96784.00;5024956;28;20049;-66
2021/12/29 08:11:42;;;;;;;2.95;0.45;;;;;;;6.94;80.68;96782.13;5026787;28;20072;-66
2021/12/29 08:14:09;;;;;;;4.07;1.25;;;;;;;6.87;81.37;96787.69;5026175;28;20055;-66
2021/12/29 08:16:36;;;;;;;1.17;0.40;;;;;;;6.95;80.70;96782.94;5024408;28;20029;-66
2021/12/29 08:19:04;;;;;;;1.60;0.47;;;;;;;6.93;80.99;96790.44;5021718;28;20068;-65
2021/12/29 08:21:31;;;;;;;3.33;0.40;;;;;;;6.91;80.76;96793.38;5017493;28;20080;-55
2021/12/29 08:23:57;;;;;;;1.23;0.40;;;;;;;6.93;81.18;96791.25;5024223;28;20061;-54
2021/12/29 08:26:24;;;;;;;1.65;0.28;;;;;;;7.06;80.73;96792.81;5022945;28;20038;-55
2021/12/29 08:28:51;;;;;;;3.35;0.77;;;;;;;7.00;80.85;96791.09;5009826;28;20049;-56
2021/12/29 08:31:17;;;;;;;1.48;0.70;;;;;;;7.04;80.93;96786.84;5015519;28;20657;-54
2021/12/29 08:33:44;;;;;;;5.35;1.17;;;;;;;7.24;80.29;96791.78;5020139;28;20061;-52
2021/12/29 08:36:11;;;;;;;2.08;0.45;;;;;;;7.35;77.90;96782.00;5029730;28;20491;-56
2021/12/29 08:38:38;;;;;;;4.47;0.50;;;;;;;7.39;77.67;96793.06;5023864;28;20048;-51
2021/12/29 08:41:06;;;;;;;1.05;0.43;;;;;;;7.33;77.38;96794.88;5023614;28;20678;-52
2021/12/29 08:43:32;;;;;;;2.78;0.60;;;;;;;7.34;77.77;96796.50;5021487;28;20717;-49
2021/12/29 08:45:59;;;;;;;2.80;0.50;;;;;;;7.41;77.37;96799.03;5018498;28;20683;-55
2021/12/29 08:48:27;;;;;;;1.52;0.52;;;;;;;7.47;75.99;96800.75;5020761;28;20099;-51
2021/12/29 08:50:59;;;;;;;2.70;0.40;;;;;;;7.41;77.44;96794.47;5026745;28;20053;-64
2021/12/29 08:53:27;;;;;;;2.17;0.63;;;;;;;7.23;78.01;96790.13;5021873;28;20049;-64
2021/12/29 08:55:55;;;;;;;3.10;0.47;;;;;;;7.16;78.28;96792.19;5018760;28;20038;-65
2021/12/29 08:58:25;;;;;;;2.17;0.60;;;;;;;7.25;77.84;96795.28;5022428;28;20041;-65
2021/12/29 09:00:55;;;;;;;4.85;0.82;;;;;;;7.14;78.71;96781.66;5021492;28;20067;-66
2021/12/29 09:03:23;;;;;;;3.20;0.68;;;;;;;7.29;78.31;96793.72;5024063;28;20484;-66
2021/12/29 09:05:49;;;;;;;1.55;0.60;;;;;;;7.20;79.64;96779.03;5023347;28;20041;-66
2021/12/29 09:08:16;;;;;;;4.55;1.73;;;;;;;7.22;79.71;96790.41;5022007;28;20049;-65
2021/12/29 09:10:44;;;;;;;3.05;0.60;;;;;;;7.31;79.06;96799.69;5021330;28;20037;-65
2021/12/29 09:13:12;;;;;;;4.97;0.60;;;;;;;7.48;78.58;96807.75;5023142;28;20049;-65
2021/12/29 09:15:40;;;;;;;6.82;1.23;;;;;;;7.37;79.64;96801.41;5021595;28;20532;-65
2021/12/29 09:18:07;;;;;;;4.10;0.90;;;;;;;7.45;79.48;96813.66;5028680;28;20040;-64
2021/12/29 09:20:36;;;;;;;5.20;0.80;;;;;;;7.47;80.12;96803.44;5022599;28;20041;-65
2021/12/29 09:23:07;;;;;;;1.85;0.75;;;;;;;7.49;79.92;96795.91;5023131;28;20527;-64
2021/12/29 09:25:37;;;;;;;2.50;0.70;;;;;;;7.54;79.92;96798.72;5024624;28;20576;-64
2021/12/29 09:28:06;;;;;;;4.95;0.95;;;;;;;7.42;79.52;96795.28;5025061;28;20054;-63
2021/12/29 09:30:34;;;;;;;3.40;1.02;;;;;;;7.49;80.55;96808.59;5026165;28;20049;-64
2021/12/29 09:33:03;;;;;;;3.97;1.42;;;;;;;7.46;80.04;96819.84;5026523;28;20809;-65
2021/12/29 09:35:29;;;;;;;5.55;1.02;;;;;;;7.47;80.87;96827.69;5024758;28;20060;-65
2021/12/29 09:38:02;;;;;;;3.55;0.90;;;;;;;7.54;80.13;96830.22;5027200;28;20069;-63
2021/12/29 09:40:29;;;;;;;3.67;1.10;;;;;;;7.50;81.04;96824.50;5026420;28;20049;-66
2021/12/29 09:42:56;;;;;;;3.75;0.98;;;;;;;7.52;80.56;96819.66;5021852;28;20049;-65
2021/12/29 09:45:24;;;;;;;3.25;0.73;;;;;;;7.51;80.92;96826.13;5032198;28;20053;-68
2021/12/29 09:47:51;;;;;;;4.05;0.75;;;;;;;7.50;80.50;96837.97;5021424;28;20045;-64
2021/12/29 09:50:19;;;;;;;2.65;1.00;;;;;;;7.58;80.58;96839.44;5022563;28;20536;-64
2021/12/29 09:52:47;;;;;;;4.75;1.05;;;;;;;7.58;80.37;96841.28;5026564;28;20045;-66
2021/12/29 09:55:18;;;;;;;2.05;0.63;;;;;;;7.61;81.02;96848.91;5024232;28;20052;-64
2021/12/29 09:57:46;;;;;;;6.10;1.00;;;;;;;7.61;80.99;96851.59;5026278;28;20049;-63
2021/12/29 10:00:39;;;;;;;3.33;1.23;;;;;;;7.65;80.88;96855.44;5022366;28;20386;-63
2021/12/29 10:03:08;;;;;;;3.00;0.88;;;;;;;7.85;80.49;96851.44;5025593;28;20042;-66
2021/12/29 10:05:38;;;;;;;3.55;0.90;;;;;;;7.96;81.10;96868.56;5022044;28;20038;-69
2021/12/29 10:08:11;;;;;;;4.50;0.95;;;;;;;8.02;80.41;96848.69;5044545;28;20524;-68
2021/12/29 10:10:41;;;;;;;4.80;1.30;;;;;;;8.06;80.23;96842.56;5034046;28;20508;-67
2021/12/29 10:13:09;;;;;;;3.08;0.85;;;;;;;8.16;79.56;96843.75;5026094;28;20052;-66
2021/12/29 10:15:40;;;;;;;2.10;0.88;;;;;;;8.26;78.44;96826.91;5027422;28;20451;-64
2021/12/29 10:18:06;;;;;;;2.10;0.90;;;;;;;8.35;79.10;96820.00;5025231;28;20061;-64
2021/12/29 10:20:46;;;;;;;2.83;0.80;;;;;;;8.35;78.63;96828.09;5025706;28;20045;-69
2021/12/29 10:23:17;;;;;;;4.00;0.80;;;;;;;8.42;78.09;96825.19;5025853;28;20040;-66
2021/12/29 10:25:44;;;;;;;2.45;0.80;;;;;;;8.07;79.44;96819.09;5023682;28;20045;-63
2021/12/29 10:28:27;;;;;;;1.98;0.90;;;;;;;8.20;79.38;96812.53;5026700;28;20049;-63
2021/12/29 10:31:04;;;;;;;1.08;0.60;;;;;;;8.22;78.34;96810.38;5025521;28;20045;-67
2021/12/29 10:33:38;;;;;;;2.70;1.00;;;;;;;8.28;78.18;96803.19;5027232;28;20049;-72
2021/12/29 10:36:11;;;;;;;5.78;1.20;;;;;;;8.18;79.08;96810.06;5019895;28;20049;-62
2021/12/29 10:38:37;;;;;;;3.75;1.00;;;;;;;8.13;79.29;96807.31;5024513;28;20266;-64
2021/12/29 10:41:04;;;;;;;2.75;0.88;;;;;;;8.36;77.86;96810.03;5024825;28;20051;-64
2021/12/29 10:43:31;;;;;;;3.38;0.80;;;;;;;8.34;77.84;96802.19;5028081;28;20412;-65
2021/12/29 10:45:59;;;;;;;1.15;0.60;;;;;;;8.38;77.82;96800.63;5027861;28;20416;-65
2021/12/29 10:48:28;;;;;;;3.80;0.80;;;;;;;8.18;79.27;96799.28;5024991;28;20038;-65
2021/12/29 10:50:57;;;;;;;3.40;0.93;;;;;;;8.01;80.04;96787.75;5026042;28;20050;-66
2021/12/29 10:53:24;;;;;;;2.55;0.75;;;;;;;8.15;79.26;96805.19;5025551;28;20037;-65
2021/12/29 10:55:51;;;;;;;3.92;1.00;;;;;;;8.29;78.45;96810.22;5024419;28;20050;-65
2021/12/29 10:58:23;;;;;;;3.75;0.93;;;;;;;8.37;77.19;96822.44;5023094;28;20049;-66
2021/12/29 11:01:07;;;;;;;;;;;;;;;8.20;78.73;96829.53;5023112;28;20042;-65
2021/12/29 11:03:44;;;;;;;2.15;0.90;;;;;;;8.02;78.98;96830.63;5025290;28;19921;-65
2021/12/29 11:06:14;;;;;;;2.35;0.73;;;;;;;8.20;78.24;96826.00;5023136;28;20042;-65
2021/12/29 11:08:55;;;;;;;1.35;0.70;;;;;;;8.15;78.56;96815.16;5024180;28;20056;-65
2021/12/29 11:11:33;;;;;;;3.42;1.02;;;;;;;8.01;79.95;96814.72;5021781;28;20049;-65
2021/12/29 11:14:08;;;;;;;1.58;0.93;;;;;;;7.87;79.51;96806.97;5023449;28;20555;-65
2021/12/29 11:16:36;;;;;;;2.97;0.90;;;;;;;8.07;78.84;96808.31;5016896;28;20037;-69
2021/12/29 11:19:03;;;;;;;3.25;0.98;;;;;;;8.15;78.79;96810.56;5025195;28;20567;-70
2021/12/29 11:21:33;;;;;;;1.20;0.50;;;;;;;8.19;78.02;96810.91;5017346;28;20037;-70
2021/12/29 11:24:20;;;;;;;1.15;0.45;;;;;;;8.16;77.82;96800.59;5024515;28;20512;-71
2021/12/29 11:26:49;;;;;;;2.55;0.70;;;;;;;8.15;77.26;96799.00;5018657;28;20049;-64
2021/12/29 11:29:21;;;;;;;2.08;0.68;;;;;;;8.06;78.54;96795.91;5024871;28;20045;-64
2021/12/29 11:32:02;;;;;;;3.95;0.93;;;;;;;7.93;78.62;96794.41;5024122;28;20045;-64
2021/12/29 11:34:29;;;;;;;1.45;0.60;;;;;;;7.97;78.69;96789.31;5017157;28;20041;-64
2021/12/29 11:37:10;;;;;;;1.92;0.65;;;;;;;7.88;79.72;96797.81;5024308;28;20045;-68
2021/12/29 11:39:43;;;;;;;1.40;0.70;;;;;;;7.88;79.58;96800.53;5024139;28;20049;-68
2021/12/29 11:42:10;;;;;;;1.80;0.90;;;;;;;7.98;79.93;96804.41;5021473;28;20650;-67
2021/12/29 11:44:37;;;;;;;3.10;1.10;;;;;;;7.93;80.39;96797.88;5025253;28;20056;-70
2021/12/29 11:47:06;;;;;;;2.08;0.82;;;;;;;7.94;80.20;96802.25;5033968;28;20056;-70
2021/12/29 11:49:33;;;;;;;1.75;0.70;;;;;;;7.90;80.20;96802.97;5031896;28;20053;-71
2021/12/29 11:52:06;;;;;;;3.58;0.60;;;;;;;7.90;80.92;96805.66;5022465;28;20049;-69
2021/12/29 11:54:51;;;;;;;3.28;0.77;;;;;;;8.06;79.76;96799.41;5016592;28;20087;-67
2021/12/29 11:57:24;;;;;;;1.95;0.88;;;;;;;8.05;79.80;96796.97;5024669;28;20042;-69
2021/12/29 11:59:50;;;;;;;3.33;0.93;;;;;;;8.02;80.24;96797.47;5022673;28;20060;-68